createdAt,value
2018-08-17T00:00:49.011Z,0.00
2018-08-17T00:01:49.013Z,0.00
2018-08-17T00:02:49.018Z,0.00
2018-08-17T00:03:49.018Z,0.00
2018-08-17T00:04:49.016Z,0.00
2018-08-17T00:05:49.022Z,0.00
2018-08-17T00:06:49.023Z,0.00
2018-08-17T00:07:49.025Z,0.00
2018-08-17T00:08:49.031Z,0.00
2018-08-17T00:09:49.031Z,0.00
2018-08-17T00:10:49.032Z,0.00
2018-08-17T00:11:49.039Z,0.00
2018-08-17T00:12:49.040Z,0.00
2018-08-17T00:13:49.045Z,0.00
2018-08-17T00:14:49.041Z,0.00
2018-08-17T00:15:49.044Z,0.00
2018-08-17T00:16:49.048Z,0.00
2018-08-17T00:17:49.063Z,0.00
2018-08-17T00:18:49.052Z,0.00
2018-08-17T00:19:49.063Z,0.00
2018-08-17T00:20:49.058Z,0.00
2018-08-17T00:21:49.057Z,0.00
2018-08-17T00:22:49.057Z,0.00
2018-08-17T00:23:49.064Z,0.00
2018-08-17T00:24:49.063Z,0.00
2018-08-17T00:25:49.070Z,0.00
2018-08-17T00:26:49.071Z,0.00
2018-08-17T00:27:49.068Z,0.00
2018-08-17T00:28:49.074Z,0.00
2018-08-17T00:29:49.073Z,0.00
2018-08-17T00:30:49.082Z,0.00
2018-08-17T00:31:49.088Z,0.00
2018-08-17T00:32:49.086Z,0.00
2018-08-17T00:33:49.083Z,0.00
2018-08-17T00:34:49.089Z,0.00
2018-08-17T00:35:49.092Z,0.00
2018-08-17T00:36:49.100Z,0.00
2018-08-17T00:37:49.092Z,0.00
2018-08-17T00:38:49.096Z,0.00
2018-08-17T00:39:49.096Z,0.00
2018-08-17T00:40:49.101Z,0.00
2018-08-17T00:41:49.103Z,0.00
2018-08-17T00:42:49.103Z,0.00
2018-08-17T00:43:49.103Z,0.00
2018-08-17T00:44:49.106Z,0.00
2018-08-17T00:45:49.112Z,0.00
2018-08-17T00:46:49.114Z,0.00
2018-08-17T00:47:49.115Z,0.00
2018-08-17T00:48:49.122Z,0.00
2018-08-17T00:49:49.119Z,0.00
2018-08-17T00:50:49.122Z,0.00
2018-08-17T00:51:49.122Z,0.00
2018-08-17T00:52:49.128Z,0.00
2018-08-17T00:53:49.130Z,0.00
2018-08-17T00:54:49.137Z,0.00
2018-08-17T00:55:49.129Z,0.00
2018-08-17T00:56:49.127Z,0.00
2018-08-17T00:57:49.131Z,0.00
2018-08-17T00:58:49.140Z,0.00
2018-08-17T00:59:49.136Z,0.00
2018-08-17T01:00:49.137Z,0.00
2018-08-17T01:01:49.135Z,0.00
2018-08-17T01:02:49.142Z,0.00
2018-08-17T01:03:49.148Z,0.00
2018-08-17T01:04:49.147Z,0.00
2018-08-17T01:05:49.147Z,0.00
2018-08-17T01:06:49.149Z,0.00
2018-08-17T01:07:49.154Z,0.00
2018-08-17T01:08:49.154Z,0.00
2018-08-17T01:09:49.159Z,0.00
2018-08-17T01:10:49.158Z,0.00
2018-08-17T01:11:49.152Z,0.00
2018-08-17T01:12:49.154Z,0.00
2018-08-17T01:13:49.159Z,0.00
2018-08-17T01:14:49.164Z,0.00
2018-08-17T01:15:49.162Z,0.00
2018-08-17T01:16:49.164Z,0.00
2018-08-17T01:17:49.169Z,0.00
2018-08-17T01:18:49.172Z,0.00
2018-08-17T01:19:49.175Z,0.00
2018-08-17T01:20:49.182Z,0.00
2018-08-17T01:21:49.177Z,0.00
2018-08-17T01:22:49.174Z,0.00
2018-08-17T01:23:49.179Z,0.00
2018-08-17T01:24:49.193Z,0.00
2018-08-17T01:25:49.189Z,0.00
2018-08-17T01:26:49.183Z,0.00
2018-08-17T01:27:49.184Z,0.00
2018-08-17T01:28:49.185Z,0.00
2018-08-17T01:29:49.188Z,0.00
2018-08-17T01:30:49.195Z,0.00
2018-08-17T01:31:49.192Z,0.00
2018-08-17T01:32:49.188Z,0.00
2018-08-17T01:33:49.191Z,0.00
2018-08-17T01:34:49.195Z,0.00
2018-08-17T01:35:49.203Z,0.00
2018-08-17T01:36:49.202Z,0.00
2018-08-17T01:37:49.200Z,0.00
2018-08-17T01:38:49.204Z,0.00
2018-08-17T01:39:49.208Z,0.00
2018-08-17T01:40:49.211Z,0.00
2018-08-17T01:41:49.207Z,0.00
2018-08-17T01:42:49.209Z,0.00
2018-08-17T01:43:49.213Z,0.00
2018-08-17T01:44:49.212Z,0.00
2018-08-17T01:45:49.224Z,0.00
2018-08-17T01:46:49.214Z,0.00
2018-08-17T01:47:49.218Z,0.00
2018-08-17T01:48:49.219Z,0.00
2018-08-17T01:49:49.224Z,0.00
2018-08-17T01:50:49.229Z,0.00
2018-08-17T01:51:49.225Z,0.00
2018-08-17T01:52:49.223Z,0.00
2018-08-17T01:53:49.224Z,0.00
2018-08-17T01:54:49.230Z,0.00
2018-08-17T01:55:49.231Z,0.00
2018-08-17T01:56:49.227Z,0.00
2018-08-17T01:57:49.231Z,0.00
2018-08-17T01:58:49.233Z,0.00
2018-08-17T01:59:49.235Z,0.00
2018-08-17T02:00:49.241Z,0.00
2018-08-17T02:01:49.239Z,0.00
2018-08-17T02:02:49.240Z,0.00
2018-08-17T02:03:49.244Z,0.00
2018-08-17T02:04:49.248Z,0.00
2018-08-17T02:05:49.249Z,0.00
2018-08-17T02:06:49.251Z,0.00
2018-08-17T02:07:49.254Z,0.00
2018-08-17T02:08:49.265Z,0.00
2018-08-17T02:09:49.250Z,0.00
2018-08-17T02:10:49.260Z,0.00
2018-08-17T02:11:49.262Z,0.00
2018-08-17T02:12:49.249Z,0.00
2018-08-17T02:13:49.251Z,0.00
2018-08-17T02:14:49.342Z,0.00
2018-08-17T02:15:49.264Z,0.00
2018-08-17T02:16:49.262Z,0.00
2018-08-17T02:17:49.263Z,0.00
2018-08-17T02:18:49.264Z,0.00
2018-08-17T02:19:49.267Z,0.00
2018-08-17T02:20:49.273Z,0.00
2018-08-17T02:21:49.268Z,0.00
2018-08-17T02:22:49.286Z,0.00
2018-08-17T02:23:49.271Z,0.00
2018-08-17T02:24:49.274Z,0.00
2018-08-17T02:25:49.278Z,0.00
2018-08-17T02:26:49.276Z,0.00
2018-08-17T02:27:49.276Z,0.00
2018-08-17T02:28:49.280Z,0.00
2018-08-17T02:29:49.278Z,0.00
2018-08-17T02:30:49.286Z,0.00
2018-08-17T02:31:49.282Z,0.00
2018-08-17T02:32:49.279Z,0.00
2018-08-17T02:33:49.292Z,0.00
2018-08-17T02:34:49.288Z,0.00
2018-08-17T02:35:49.288Z,0.00
2018-08-17T02:36:49.286Z,0.00
2018-08-17T02:37:49.295Z,0.00
2018-08-17T02:38:49.292Z,0.00
2018-08-17T02:39:49.295Z,0.00
2018-08-17T02:40:49.304Z,0.00
2018-08-17T02:41:49.296Z,0.00
2018-08-17T02:42:49.297Z,0.00
2018-08-17T02:43:49.305Z,0.00
2018-08-17T02:44:49.302Z,0.00
2018-08-17T02:45:49.312Z,0.00
2018-08-17T02:46:49.303Z,0.00
2018-08-17T02:47:49.306Z,0.00
2018-08-17T02:48:49.306Z,0.00
2018-08-17T02:49:49.307Z,0.00
2018-08-17T02:50:49.310Z,0.00
2018-08-17T02:51:49.315Z,0.00
2018-08-17T02:52:49.307Z,0.00
2018-08-17T02:53:49.316Z,0.00
2018-08-17T02:54:49.314Z,0.00
2018-08-17T02:55:49.311Z,0.00
2018-08-17T02:56:49.317Z,0.00
2018-08-17T02:57:49.314Z,0.00
2018-08-17T02:58:49.324Z,0.00
2018-08-17T02:59:49.327Z,0.00
2018-08-17T03:00:49.321Z,0.00
2018-08-17T03:01:49.323Z,0.00
2018-08-17T03:02:49.329Z,0.00
2018-08-17T03:03:49.328Z,0.00
2018-08-17T03:04:49.348Z,0.00
2018-08-17T03:05:49.326Z,0.00
2018-08-17T03:06:49.332Z,0.00
2018-08-17T03:07:49.326Z,0.00
2018-08-17T03:08:49.332Z,0.00
2018-08-17T03:09:49.337Z,0.00
2018-08-17T03:10:49.329Z,0.00
2018-08-17T03:11:49.332Z,0.00
2018-08-17T03:12:49.334Z,0.00
2018-08-17T03:13:49.339Z,0.00
2018-08-17T03:14:49.337Z,0.00
2018-08-17T03:15:49.343Z,0.00
2018-08-17T03:16:49.342Z,0.00
2018-08-17T03:17:49.352Z,0.00
2018-08-17T03:18:49.340Z,4.00
2018-08-17T03:19:49.343Z,4.00
2018-08-17T03:20:49.346Z,0.00
2018-08-17T03:21:49.347Z,4.00
2018-08-17T03:22:49.348Z,4.00
2018-08-17T03:23:49.356Z,4.00
2018-08-17T03:24:49.351Z,4.00
2018-08-17T03:25:49.361Z,8.00
2018-08-17T03:26:49.359Z,8.00
2018-08-17T03:27:49.359Z,4.00
2018-08-17T03:28:49.361Z,12.00
2018-08-17T03:29:49.355Z,12.00
2018-08-17T03:30:49.378Z,12.00
2018-08-17T03:31:49.361Z,16.00
2018-08-17T03:32:49.359Z,16.00
2018-08-17T03:33:49.359Z,16.00
2018-08-17T03:34:49.368Z,20.00
2018-08-17T03:35:49.365Z,24.00
2018-08-17T03:36:49.366Z,28.00
2018-08-17T03:37:49.367Z,32.00
2018-08-17T03:38:49.365Z,36.00
2018-08-17T03:39:49.367Z,36.00
2018-08-17T03:40:49.374Z,44.00
2018-08-17T03:41:49.372Z,48.00
2018-08-17T03:42:49.373Z,56.00
2018-08-17T03:43:49.375Z,60.00
2018-08-17T03:44:49.372Z,68.00
2018-08-17T03:45:49.379Z,72.00
2018-08-17T03:46:49.374Z,84.00
2018-08-17T03:47:49.374Z,92.00
2018-08-17T03:48:49.371Z,100.00
2018-08-17T03:49:49.375Z,108.00
2018-08-17T03:50:49.377Z,120.00
2018-08-17T03:51:49.375Z,128.00
2018-08-17T03:52:49.380Z,140.00
2018-08-17T03:53:49.384Z,152.00
2018-08-17T03:54:49.384Z,164.00
2018-08-17T03:55:49.380Z,180.00
2018-08-17T03:56:49.390Z,192.00
2018-08-17T03:57:49.385Z,208.00
2018-08-17T03:58:49.387Z,224.00
2018-08-17T03:59:49.390Z,240.00
2018-08-17T04:00:49.389Z,264.00
2018-08-17T04:01:49.391Z,280.00
2018-08-17T04:02:49.388Z,304.00
2018-08-17T04:03:49.390Z,328.00
2018-08-17T04:04:49.395Z,352.00
2018-08-17T04:05:49.400Z,376.00
2018-08-17T04:06:49.395Z,404.00
2018-08-17T04:07:49.388Z,432.00
2018-08-17T04:08:49.393Z,464.00
2018-08-17T04:09:49.397Z,492.00
2018-08-17T04:10:49.398Z,520.00
2018-08-17T04:11:49.399Z,556.00
2018-08-17T04:12:49.399Z,584.00
2018-08-17T04:13:49.407Z,620.00
2018-08-17T04:14:49.401Z,656.00
2018-08-17T04:15:49.405Z,688.00
2018-08-17T04:16:49.408Z,724.00
2018-08-17T04:17:49.409Z,764.00
2018-08-17T04:18:49.403Z,800.00
2018-08-17T04:19:49.417Z,836.00
2018-08-17T04:20:49.408Z,872.00
2018-08-17T04:21:49.407Z,912.00
2018-08-17T04:22:49.413Z,952.00
2018-08-17T04:23:49.463Z,1000.00
2018-08-17T04:24:49.409Z,1044.00
2018-08-17T04:25:49.407Z,1084.00
2018-08-17T04:26:49.411Z,1128.00
2018-08-17T04:27:49.413Z,1176.00
2018-08-17T04:28:49.412Z,1228.00
2018-08-17T04:29:49.416Z,1280.00
2018-08-17T04:30:49.417Z,1344.00
2018-08-17T04:31:49.425Z,1400.00
2018-08-17T04:32:49.420Z,1456.00
2018-08-17T04:33:49.427Z,1516.00
2018-08-17T04:34:49.421Z,1576.00
2018-08-17T04:35:49.425Z,1632.00
2018-08-17T04:36:49.421Z,1684.00
2018-08-17T04:37:49.425Z,1728.00
2018-08-17T04:38:49.422Z,1776.00
2018-08-17T04:39:49.423Z,1824.00
2018-08-17T04:40:49.423Z,1872.00
2018-08-17T04:41:49.429Z,1924.00
2018-08-17T04:42:49.425Z,1980.00
2018-08-17T04:43:49.488Z,2036.00
2018-08-17T04:44:49.429Z,2096.00
2018-08-17T04:45:49.431Z,2160.00
2018-08-17T04:46:49.433Z,2232.00
2018-08-17T04:47:49.433Z,2324.00
2018-08-17T04:48:49.431Z,2432.00
2018-08-17T04:49:49.433Z,2540.00
2018-08-17T04:50:49.433Z,2644.00
2018-08-17T04:51:49.438Z,2784.00
2018-08-17T04:52:49.438Z,2964.00
2018-08-17T04:53:49.444Z,3108.00
2018-08-17T04:54:49.441Z,3232.00
2018-08-17T04:55:49.447Z,3340.00
2018-08-17T04:56:49.444Z,3424.00
2018-08-17T04:57:49.450Z,3412.00
2018-08-17T04:58:49.474Z,3592.00
2018-08-17T04:59:49.450Z,3664.00
2018-08-17T05:00:49.451Z,3712.00
2018-08-17T05:01:49.454Z,3776.00
2018-08-17T05:02:49.449Z,3848.00
2018-08-17T05:03:49.456Z,3912.00
2018-08-17T05:04:49.452Z,3976.00
2018-08-17T05:05:49.451Z,4032.00
2018-08-17T05:06:49.452Z,4072.00
2018-08-17T05:07:49.456Z,4112.00
2018-08-17T05:08:49.510Z,4160.00
2018-08-17T05:09:49.461Z,4224.00
2018-08-17T05:10:49.462Z,4288.00
2018-08-17T05:11:49.466Z,4336.00
2018-08-17T05:12:49.465Z,4380.00
2018-08-17T05:13:49.471Z,4440.00
2018-08-17T05:14:49.476Z,4484.00
2018-08-17T05:15:49.474Z,4520.00
2018-08-17T05:16:49.473Z,4524.00
2018-08-17T05:17:49.470Z,4556.00
2018-08-17T05:18:49.479Z,4580.00
2018-08-17T05:19:49.483Z,4636.00
2018-08-17T05:20:49.490Z,4708.00
2018-08-17T05:21:49.489Z,4680.00
2018-08-17T05:22:49.490Z,4688.00
2018-08-17T05:23:49.486Z,4628.00
2018-08-17T05:24:49.503Z,4744.00
2018-08-17T05:25:49.495Z,4920.00
2018-08-17T05:26:49.500Z,5016.00
2018-08-17T05:27:49.503Z,5040.00
2018-08-17T05:28:49.508Z,5064.00
2018-08-17T05:29:49.514Z,5120.00
2018-08-17T05:30:49.509Z,5188.00
2018-08-17T05:31:49.515Z,4996.00
2018-08-17T05:32:49.515Z,4728.00
2018-08-17T05:33:49.520Z,5028.00
2018-08-17T05:34:49.523Z,5204.00
2018-08-17T05:35:49.555Z,5252.00
2018-08-17T05:36:49.531Z,5556.00
2018-08-17T05:37:49.535Z,5752.00
2018-08-17T05:38:49.534Z,5804.00
2018-08-17T05:39:49.543Z,5816.00
2018-08-17T05:40:49.548Z,5940.00
2018-08-17T05:41:49.551Z,6020.00
2018-08-17T05:42:49.561Z,6092.00
2018-08-17T05:43:49.554Z,6184.00
2018-08-17T05:44:49.563Z,6316.00
2018-08-17T05:45:49.564Z,6488.00
2018-08-17T05:46:49.571Z,6852.00
2018-08-17T05:47:49.574Z,8940.00
2018-08-17T05:48:49.581Z,11932.00
2018-08-17T05:49:49.587Z,13312.00
2018-08-17T05:50:49.587Z,13952.00
2018-08-17T05:51:49.599Z,14624.00
2018-08-17T05:52:49.606Z,15104.00
2018-08-17T05:53:49.600Z,15072.00
2018-08-17T05:54:49.609Z,15200.00
2018-08-17T05:55:49.609Z,15872.00
2018-08-17T05:56:49.613Z,16896.00
2018-08-17T05:57:49.619Z,17920.00
2018-08-17T05:58:49.624Z,17088.00
2018-08-17T05:59:49.628Z,17024.00
2018-08-17T06:00:49.638Z,16896.00
2018-08-17T06:01:49.640Z,17408.00
2018-08-17T06:02:49.676Z,18752.00
2018-08-17T06:03:49.652Z,19360.00
2018-08-17T06:04:49.654Z,19232.00
2018-08-17T06:05:49.661Z,17536.00
2018-08-17T06:06:49.669Z,18368.00
2018-08-17T06:07:49.673Z,18112.00
2018-08-17T06:08:49.678Z,17824.00
2018-08-17T06:09:49.685Z,17952.00
2018-08-17T06:10:49.762Z,18880.00
2018-08-17T06:11:49.757Z,19776.00
2018-08-17T06:12:49.735Z,20064.00
2018-08-17T06:13:49.707Z,20128.00
2018-08-17T06:14:49.712Z,20960.00
2018-08-17T06:15:49.719Z,22528.00
2018-08-17T06:16:49.722Z,22240.00
2018-08-17T06:17:49.729Z,23136.00
2018-08-17T06:18:49.738Z,23616.00
2018-08-17T06:19:49.741Z,24128.00
2018-08-17T06:20:49.751Z,23744.00
2018-08-17T06:21:49.757Z,26528.00
2018-08-17T06:22:49.762Z,25152.00
2018-08-17T06:23:49.771Z,26528.00
2018-08-17T06:24:49.771Z,26752.00
2018-08-17T06:25:49.779Z,26112.00
2018-08-17T06:26:49.794Z,25248.00
2018-08-17T06:27:49.798Z,26080.00
2018-08-17T06:28:49.806Z,26784.00
2018-08-17T06:29:49.805Z,27808.00
2018-08-17T06:30:49.813Z,29792.00
2018-08-17T06:31:49.886Z,28928.00
2018-08-17T06:32:49.849Z,27072.00
2018-08-17T06:33:49.835Z,26048.00
2018-08-17T06:34:49.842Z,26144.00
2018-08-17T06:35:49.849Z,26144.00
2018-08-17T06:36:49.854Z,25824.00
2018-08-17T06:37:49.864Z,27552.00
2018-08-17T06:38:49.871Z,29600.00
2018-08-17T06:39:49.877Z,30912.00
2018-08-17T06:40:49.883Z,30688.00
2018-08-17T06:41:49.896Z,30144.00
2018-08-17T06:42:49.901Z,33824.00
2018-08-17T06:43:49.908Z,33696.00
2018-08-17T06:44:49.913Z,35680.00
2018-08-17T06:45:49.920Z,36928.00
2018-08-17T06:46:49.930Z,35136.00
2018-08-17T06:47:49.935Z,35168.00
2018-08-17T06:48:49.944Z,30496.00
2018-08-17T06:49:49.950Z,33152.00
2018-08-17T06:50:50.110Z,32672.00
2018-08-17T06:51:49.964Z,28064.00
2018-08-17T06:52:49.972Z,31840.00
2018-08-17T06:53:49.979Z,32704.00
2018-08-17T06:54:49.989Z,35552.00
2018-08-17T06:55:49.992Z,40544.00
2018-08-17T06:56:50.005Z,38464.00
2018-08-17T06:57:50.017Z,33792.00
2018-08-17T06:58:50.017Z,29504.00
2018-08-17T06:59:50.024Z,33888.00
2018-08-17T07:00:50.034Z,32288.00
2018-08-17T07:01:50.043Z,39008.00
2018-08-17T07:02:50.066Z,43168.00
2018-08-17T07:03:50.080Z,44000.00
2018-08-17T07:04:50.066Z,43392.00
2018-08-17T07:05:50.075Z,35680.00
2018-08-17T07:06:50.087Z,32832.00
2018-08-17T07:07:50.093Z,31968.00
2018-08-17T07:08:50.183Z,33824.00
2018-08-17T07:09:50.109Z,39072.00
2018-08-17T07:10:50.115Z,42784.00
2018-08-17T07:11:50.125Z,45312.00
2018-08-17T07:12:50.138Z,39456.00
2018-08-17T07:13:50.139Z,30400.00
2018-08-17T07:14:50.149Z,26368.00
2018-08-17T07:15:50.157Z,27904.00
2018-08-17T07:16:50.168Z,34912.00
2018-08-17T07:17:50.176Z,38528.00
2018-08-17T07:18:50.182Z,34784.00
2018-08-17T07:19:50.188Z,28160.00
2018-08-17T07:20:50.199Z,25408.00
2018-08-17T07:21:50.209Z,22304.00
2018-08-17T07:22:50.218Z,23008.00
2018-08-17T07:23:50.227Z,27616.00
2018-08-17T07:24:50.232Z,31008.00
2018-08-17T07:25:50.431Z,31808.00
2018-08-17T07:26:50.252Z,29696.00
2018-08-17T07:27:50.352Z,26752.00
2018-08-17T07:28:50.277Z,25216.00
2018-08-17T07:29:50.278Z,24896.00
2018-08-17T07:30:50.289Z,26176.00
2018-08-17T07:31:50.298Z,28512.00
2018-08-17T07:32:50.312Z,32064.00
2018-08-17T07:33:50.339Z,36960.00
2018-08-17T07:34:50.324Z,35648.00
2018-08-17T07:35:50.445Z,32608.00
2018-08-17T07:36:50.345Z,30240.00
2018-08-17T07:37:50.352Z,29312.00
2018-08-17T07:38:50.361Z,28768.00
2018-08-17T07:39:50.372Z,27200.00
2018-08-17T07:40:50.380Z,26752.00
2018-08-17T07:41:50.390Z,29664.00
2018-08-17T07:42:50.397Z,35808.00
2018-08-17T07:43:50.405Z,41088.00
2018-08-17T07:44:50.418Z,45248.00
2018-08-17T07:45:50.429Z,47136.00
2018-08-17T07:46:50.437Z,45792.00
2018-08-17T07:47:50.529Z,41568.00
2018-08-17T07:48:50.461Z,36480.00
2018-08-17T07:49:50.479Z,32064.00
2018-08-17T07:50:50.487Z,26816.00
2018-08-17T07:51:50.493Z,26496.00
2018-08-17T07:52:50.498Z,30880.00
2018-08-17T07:53:50.510Z,28896.00
2018-08-17T07:54:50.521Z,26400.00
2018-08-17T07:55:50.531Z,34816.00
2018-08-17T07:56:50.539Z,44704.00
2018-08-17T07:57:50.556Z,40096.00
2018-08-17T07:58:50.565Z,49632.00
2018-08-17T07:59:50.573Z,38432.00
2018-08-17T08:00:50.579Z,24192.00
2018-08-17T08:01:50.591Z,30816.00
2018-08-17T08:02:50.606Z,35648.00
2018-08-17T08:03:50.611Z,34144.00
2018-08-17T08:04:50.623Z,20448.00
2018-08-17T08:05:50.632Z,10552.00
2018-08-17T08:06:50.643Z,10196.00
2018-08-17T08:07:50.652Z,10684.00
2018-08-17T08:08:50.660Z,10988.00
2018-08-17T08:09:50.670Z,10420.00
2018-08-17T08:10:50.682Z,13352.00
2018-08-17T08:11:50.691Z,17504.00
2018-08-17T08:12:50.698Z,34112.00
2018-08-17T08:13:50.711Z,55584.00
2018-08-17T08:14:50.718Z,63808.00
2018-08-17T08:15:50.727Z,69472.00
2018-08-17T08:16:50.737Z,67904.00
2018-08-17T08:17:50.746Z,65952.00
2018-08-17T08:18:50.755Z,66720.00
2018-08-17T08:19:50.765Z,66944.00
2018-08-17T08:20:50.772Z,66752.00
2018-08-17T08:21:50.783Z,63904.00
2018-08-17T08:22:50.793Z,58144.00
2018-08-17T08:23:50.805Z,44896.00
2018-08-17T08:24:50.812Z,30656.00
2018-08-17T08:25:50.824Z,40896.00
2018-08-17T08:26:50.839Z,67968.00
2018-08-17T08:27:50.844Z,66656.00
2018-08-17T08:28:50.851Z,67200.00
2018-08-17T08:29:50.864Z,69472.00
2018-08-17T08:30:50.872Z,69120.00
2018-08-17T08:31:50.884Z,66464.00
2018-08-17T08:32:50.893Z,64416.00
2018-08-17T08:33:50.903Z,64800.00
2018-08-17T08:34:50.914Z,67040.00
2018-08-17T08:35:50.925Z,33760.00
2018-08-17T08:36:50.933Z,9260.00
2018-08-17T08:37:50.946Z,6460.00
2018-08-17T08:38:50.956Z,5988.00
2018-08-17T08:39:51.004Z,6092.00
2018-08-17T08:40:50.977Z,6172.00
2018-08-17T08:41:50.985Z,7120.00
2018-08-17T08:42:50.993Z,10304.00
2018-08-17T08:43:51.005Z,8292.00
2018-08-17T08:44:51.013Z,6024.00
2018-08-17T08:45:51.072Z,5932.00
2018-08-17T08:46:51.031Z,5944.00
2018-08-17T08:47:51.041Z,5868.00
2018-08-17T08:48:51.050Z,5816.00
2018-08-17T08:49:51.061Z,5760.00
2018-08-17T08:50:51.070Z,5692.00
2018-08-17T08:51:51.075Z,5652.00
2018-08-17T08:52:51.081Z,5632.00
2018-08-17T08:53:51.090Z,5616.00
2018-08-17T08:54:51.097Z,5592.00
2018-08-17T08:55:51.108Z,5544.00
2018-08-17T08:56:51.111Z,5576.00
2018-08-17T08:57:51.121Z,5544.00
2018-08-17T08:58:51.126Z,5528.00
2018-08-17T08:59:51.135Z,5516.00
2018-08-17T09:00:51.141Z,5556.00
2018-08-17T09:01:51.242Z,5636.00
2018-08-17T09:02:51.158Z,5704.00
2018-08-17T09:03:51.162Z,5696.00
2018-08-17T09:04:51.169Z,5668.00
2018-08-17T09:05:51.179Z,5648.00
2018-08-17T09:06:51.193Z,5612.00
2018-08-17T09:07:51.317Z,5572.00
2018-08-17T09:08:51.197Z,5568.00
2018-08-17T09:09:51.262Z,5572.00
2018-08-17T09:10:51.212Z,5516.00
2018-08-17T09:11:51.225Z,5484.00
2018-08-17T09:12:51.230Z,5440.00
2018-08-17T09:13:51.239Z,5432.00
2018-08-17T09:14:51.235Z,5464.00
2018-08-17T09:15:51.250Z,5444.00
2018-08-17T09:16:51.266Z,5452.00
2018-08-17T09:17:51.257Z,5460.00
2018-08-17T09:18:51.272Z,5444.00
2018-08-17T09:19:51.269Z,5416.00
2018-08-17T09:20:51.328Z,5376.00
2018-08-17T09:21:51.282Z,5372.00
2018-08-17T09:22:51.290Z,5376.00
2018-08-17T09:23:51.410Z,5368.00
2018-08-17T09:24:51.341Z,5360.00
2018-08-17T09:25:51.304Z,5368.00
2018-08-17T09:26:51.443Z,5376.00
2018-08-17T09:27:51.408Z,5336.00
2018-08-17T09:28:51.336Z,5280.00
2018-08-17T09:29:51.398Z,5264.00
2018-08-17T09:30:51.350Z,5280.00
2018-08-17T09:31:51.356Z,5280.00
2018-08-17T09:32:51.418Z,5240.00
2018-08-17T09:33:51.354Z,5240.00
2018-08-17T09:34:51.906Z,5288.00
2018-08-17T09:35:51.388Z,5332.00
2018-08-17T09:36:51.374Z,5348.00
2018-08-17T09:37:51.458Z,5352.00
2018-08-17T09:38:51.390Z,5356.00
2018-08-17T09:39:51.419Z,5368.00
2018-08-17T09:40:51.405Z,5372.00
2018-08-17T09:41:51.487Z,5376.00
2018-08-17T09:42:51.420Z,5380.00
2018-08-17T09:43:51.419Z,5424.00
2018-08-17T09:44:51.426Z,5456.00
2018-08-17T09:45:51.427Z,5508.00
2018-08-17T09:46:51.434Z,5564.00
2018-08-17T09:47:51.441Z,5640.00
2018-08-17T09:48:51.483Z,5984.00
2018-08-17T09:49:51.451Z,6136.00
2018-08-17T09:50:51.458Z,6228.00
2018-08-17T09:51:51.466Z,6432.00
2018-08-17T09:52:51.470Z,6536.00
2018-08-17T09:53:51.477Z,6368.00
2018-08-17T09:54:51.484Z,6140.00
2018-08-17T09:55:51.492Z,5928.00
2018-08-17T09:56:51.499Z,5776.00
2018-08-17T09:57:51.502Z,5708.00
2018-08-17T09:58:51.508Z,5636.00
2018-08-17T09:59:51.514Z,5620.00
2018-08-17T10:00:51.526Z,5688.00
2018-08-17T10:01:51.526Z,5700.00
2018-08-17T10:02:51.535Z,5732.00
2018-08-17T10:03:51.643Z,5808.00
2018-08-17T10:04:51.544Z,5828.00
2018-08-17T10:05:51.554Z,5820.00
2018-08-17T10:06:51.557Z,5804.00
2018-08-17T10:07:51.563Z,5704.00
2018-08-17T10:08:51.572Z,5588.00
2018-08-17T10:09:51.578Z,5528.00
2018-08-17T10:10:51.585Z,5612.00
2018-08-17T10:11:51.590Z,5784.00
2018-08-17T10:12:51.611Z,5964.00
2018-08-17T10:13:51.604Z,6156.00
2018-08-17T10:14:51.608Z,6336.00
2018-08-17T10:15:51.681Z,6516.00
2018-08-17T10:16:51.623Z,6680.00
2018-08-17T10:17:51.631Z,6876.00
2018-08-17T10:18:51.644Z,7080.00
2018-08-17T10:19:51.643Z,7268.00
2018-08-17T10:20:51.764Z,7492.00
2018-08-17T10:21:51.949Z,7888.00
2018-08-17T10:22:51.663Z,8332.00
2018-08-17T10:23:51.670Z,8588.00
2018-08-17T10:24:51.674Z,8692.00
2018-08-17T10:25:51.682Z,8800.00
2018-08-17T10:26:51.692Z,8920.00
2018-08-17T10:27:51.699Z,8992.00
2018-08-17T10:28:51.697Z,9080.00
2018-08-17T10:29:51.710Z,8880.00
2018-08-17T10:30:51.714Z,8684.00
2018-08-17T10:31:51.723Z,8564.00
2018-08-17T10:32:51.728Z,8012.00
2018-08-17T10:33:51.761Z,7656.00
2018-08-17T10:34:51.739Z,7140.00
2018-08-17T10:35:51.746Z,6952.00
2018-08-17T10:36:51.750Z,6920.00
2018-08-17T10:37:51.758Z,6772.00
2018-08-17T10:38:51.768Z,6648.00
2018-08-17T10:39:51.779Z,6232.00
2018-08-17T10:40:51.829Z,6140.00
2018-08-17T10:41:51.792Z,6028.00
2018-08-17T10:42:51.794Z,5876.00
2018-08-17T10:43:51.802Z,5820.00
2018-08-17T10:44:51.808Z,6072.00
2018-08-17T10:45:51.813Z,6152.00
2018-08-17T10:46:51.822Z,6116.00
2018-08-17T10:47:51.829Z,6092.00
2018-08-17T10:48:51.930Z,6204.00
2018-08-17T10:49:51.846Z,6456.00
2018-08-17T10:50:51.849Z,6640.00
2018-08-17T10:51:51.857Z,6712.00
2018-08-17T10:52:51.865Z,6460.00
2018-08-17T10:53:51.879Z,6308.00
2018-08-17T10:54:51.876Z,6176.00
2018-08-17T10:55:51.888Z,6056.00
2018-08-17T10:56:51.892Z,5840.00
2018-08-17T10:57:51.896Z,5712.00
2018-08-17T10:58:51.904Z,5536.00
2018-08-17T10:59:51.913Z,5376.00
2018-08-17T11:00:51.917Z,5276.00
2018-08-17T11:01:51.926Z,5216.00
2018-08-17T11:02:51.935Z,5152.00
2018-08-17T11:03:51.943Z,5136.00
2018-08-17T11:04:51.952Z,5148.00
2018-08-17T11:05:51.960Z,5152.00
2018-08-17T11:06:51.970Z,4964.00
2018-08-17T11:07:51.968Z,5016.00
2018-08-17T11:08:51.973Z,5132.00
2018-08-17T11:09:51.982Z,5408.00
2018-08-17T11:10:52.019Z,5536.00
2018-08-17T11:11:51.994Z,5512.00
2018-08-17T11:12:52.000Z,5572.00
2018-08-17T11:13:52.007Z,5820.00
2018-08-17T11:14:52.016Z,6224.00
2018-08-17T11:15:52.038Z,6768.00
2018-08-17T11:16:52.089Z,6992.00
2018-08-17T11:17:52.037Z,7168.00
2018-08-17T11:18:52.042Z,6936.00
2018-08-17T11:19:52.052Z,6832.00
2018-08-17T11:20:52.058Z,7016.00
2018-08-17T11:21:52.064Z,6520.00
2018-08-17T11:22:52.091Z,6296.00
2018-08-17T11:23:52.079Z,5780.00
2018-08-17T11:24:52.087Z,5352.00
2018-08-17T11:25:52.092Z,5144.00
2018-08-17T11:26:52.099Z,5116.00
2018-08-17T11:27:52.106Z,5116.00
2018-08-17T11:28:52.113Z,4816.00
2018-08-17T11:29:52.124Z,4760.00
2018-08-17T11:30:52.130Z,4676.00
2018-08-17T11:31:52.135Z,4612.00
2018-08-17T11:32:52.143Z,4496.00
2018-08-17T11:33:52.149Z,4488.00
2018-08-17T11:34:52.156Z,4480.00
2018-08-17T11:35:52.165Z,4548.00
2018-08-17T11:36:52.170Z,4456.00
2018-08-17T11:37:52.180Z,4356.00
2018-08-17T11:38:52.185Z,4256.00
2018-08-17T11:39:52.191Z,4168.00
2018-08-17T11:40:52.223Z,4132.00
2018-08-17T11:41:52.205Z,4092.00
2018-08-17T11:42:52.214Z,4052.00
2018-08-17T11:43:52.219Z,4028.00
2018-08-17T11:44:52.225Z,3984.00
2018-08-17T11:45:52.234Z,3968.00
2018-08-17T11:46:52.241Z,3920.00
2018-08-17T11:47:52.257Z,3912.00
2018-08-17T11:48:52.264Z,3904.00
2018-08-17T11:49:52.263Z,3908.00
2018-08-17T11:50:52.275Z,3900.00
2018-08-17T11:51:52.277Z,3912.00
2018-08-17T11:52:52.284Z,3908.00
2018-08-17T11:53:52.359Z,3908.00
2018-08-17T11:54:52.310Z,3876.00
2018-08-17T11:55:52.310Z,3640.00
2018-08-17T11:56:52.317Z,3876.00
2018-08-17T11:57:52.331Z,3872.00
2018-08-17T11:58:52.330Z,3884.00
2018-08-17T11:59:52.340Z,3996.00
2018-08-17T12:00:52.343Z,4068.00
2018-08-17T12:01:52.411Z,4152.00
2018-08-17T12:02:52.359Z,4228.00
2018-08-17T12:03:52.404Z,4100.00
2018-08-17T12:04:52.372Z,3832.00
2018-08-17T12:05:52.382Z,3920.00
2018-08-17T12:06:52.386Z,3688.00
2018-08-17T12:07:52.415Z,3496.00
2018-08-17T12:08:52.397Z,3440.00
2018-08-17T12:09:52.426Z,3476.00
2018-08-17T12:10:52.416Z,3720.00
2018-08-17T12:11:52.423Z,3844.00
2018-08-17T12:12:52.509Z,3892.00
2018-08-17T12:13:52.436Z,3900.00
2018-08-17T12:14:52.443Z,3924.00
2018-08-17T12:15:52.450Z,3960.00
2018-08-17T12:16:52.457Z,4060.00
2018-08-17T12:17:52.463Z,4160.00
2018-08-17T12:18:52.553Z,4216.00
2018-08-17T12:19:52.479Z,4220.00
2018-08-17T12:20:52.486Z,4260.00
2018-08-17T12:21:52.494Z,4308.00